createdAt,value
2023-05-18T00:01:32.343Z,12.75
2023-05-18T00:03:59.529Z,12.72
2023-05-18T00:06:28.141Z,12.70
2023-05-18T00:08:55.233Z,12.68
2023-05-18T00:11:22.383Z,12.66
2023-05-18T00:13:49.638Z,12.63
2023-05-18T00:16:16.934Z,12.60
2023-05-18T00:18:45.510Z,12.55
2023-05-18T00:21:13.600Z,12.51
2023-05-18T00:23:40.956Z,12.48
2023-05-18T00:26:08.076Z,12.44
2023-05-18T00:28:35.226Z,12.40
2023-05-18T00:31:02.345Z,12.37
2023-05-18T00:33:29.473Z,12.33
2023-05-18T00:35:57.718Z,12.29
2023-05-18T00:38:25.018Z,12.25
2023-05-18T00:40:52.225Z,12.19
2023-05-18T00:43:19.361Z,12.16
2023-05-18T00:45:46.598Z,12.14
2023-05-18T00:48:14.211Z,12.11
2023-05-18T00:50:41.503Z,12.08
2023-05-18T00:53:10.882Z,12.05
2023-05-18T00:55:38.061Z,12.03
2023-05-18T00:58:07.316Z,12.02
2023-05-18T01:00:37.935Z,12.00
2023-05-18T01:03:05.488Z,11.98
2023-05-18T01:05:32.914Z,11.97
2023-05-18T01:08:03.281Z,11.99
2023-05-18T01:10:33.945Z,12.02
2023-05-18T01:13:10.078Z,12.05
2023-05-18T01:15:39.842Z,12.06
2023-05-18T01:18:16.626Z,12.06
2023-05-18T01:20:46.171Z,12.05
2023-05-18T01:23:25.655Z,12.04
2023-05-18T01:25:55.787Z,12.05
2023-05-18T01:28:30.384Z,12.06
2023-05-18T01:30:58.747Z,12.08
2023-05-18T01:33:26.070Z,12.07
2023-05-18T01:35:53.681Z,12.06
2023-05-18T01:38:24.638Z,12.05
2023-05-18T01:41:07.003Z,12.04
2023-05-18T01:43:38.174Z,12.05
2023-05-18T01:46:13.587Z,12.09
2023-05-18T01:48:48.117Z,12.14
2023-05-18T01:51:20.681Z,12.18
2023-05-18T01:53:59.485Z,12.20
2023-05-18T01:56:28.156Z,12.23
2023-05-18T01:58:55.542Z,12.25
2023-05-18T02:01:24.315Z,12.26
2023-05-18T02:03:51.843Z,12.25
2023-05-18T02:06:19.051Z,12.22
2023-05-18T02:08:46.375Z,12.22
2023-05-18T02:11:13.530Z,12.22
2023-05-18T02:13:41.149Z,12.26
2023-05-18T02:16:08.579Z,12.31
2023-05-18T02:18:36.705Z,12.35
2023-05-18T02:21:04.456Z,12.38
2023-05-18T02:23:32.276Z,12.39
2023-05-18T02:25:59.460Z,12.40
2023-05-18T02:28:26.659Z,12.39
2023-05-18T02:30:53.887Z,12.38
2023-05-18T02:33:26.583Z,12.35
2023-05-18T02:35:54.453Z,12.35
2023-05-18T02:38:21.986Z,12.36
2023-05-18T02:40:49.126Z,12.39
2023-05-18T02:43:17.438Z,12.42
2023-05-18T02:45:45.594Z,12.43
2023-05-18T02:48:12.742Z,12.46
2023-05-18T02:50:39.930Z,12.47
2023-05-18T02:53:07.258Z,12.51
2023-05-18T02:55:34.516Z,12.57
2023-05-18T02:58:10.714Z,12.66
2023-05-18T03:00:50.409Z,12.77
2023-05-18T03:03:17.809Z,12.87
2023-05-18T03:05:45.103Z,12.98
2023-05-18T03:08:12.175Z,13.11
2023-05-18T03:10:39.422Z,13.23
2023-05-18T03:13:06.498Z,13.39
2023-05-18T03:15:33.561Z,13.55
2023-05-18T03:18:00.864Z,13.73
2023-05-18T03:20:30.079Z,13.91
2023-05-18T03:22:57.875Z,14.11
2023-05-18T03:25:25.859Z,14.31
2023-05-18T03:27:53.378Z,14.52
2023-05-18T03:30:20.732Z,14.74
2023-05-18T03:32:48.469Z,14.99
2023-05-18T03:35:16.962Z,15.24
2023-05-18T03:37:44.000Z,15.49
2023-05-18T03:40:16.489Z,15.75
2023-05-18T03:42:44.531Z,16.04
2023-05-18T03:45:12.534Z,16.30
2023-05-18T03:47:40.421Z,16.56
2023-05-18T03:50:08.444Z,16.84
2023-05-18T03:52:36.448Z,17.11
2023-05-18T03:55:04.814Z,17.38
2023-05-18T03:57:32.479Z,17.65
2023-05-18T04:00:01.138Z,17.93
2023-05-18T04:02:30.172Z,18.17
2023-05-18T04:04:58.232Z,18.39
2023-05-18T04:07:27.666Z,18.63
2023-05-18T04:10:03.101Z,18.84
2023-05-18T04:12:30.155Z,19.05
2023-05-18T04:14:57.284Z,19.19
2023-05-18T04:17:24.418Z,19.30
2023-05-18T04:19:52.383Z,19.39
2023-05-18T04:22:19.477Z,19.50
2023-05-18T04:24:47.762Z,19.60
2023-05-18T04:27:15.515Z,19.69
2023-05-18T04:29:44.107Z,19.81
2023-05-18T04:32:11.530Z,20.03
2023-05-18T04:34:39.314Z,20.23
2023-05-18T04:37:07.059Z,20.38
2023-05-18T04:39:39.697Z,20.51
2023-05-18T04:42:10.723Z,20.64
2023-05-18T04:44:39.288Z,20.78
2023-05-18T04:47:08.841Z,20.88
2023-05-18T04:49:36.630Z,20.95
2023-05-18T04:52:06.828Z,21.07
2023-05-18T04:54:33.957Z,21.14
2023-05-18T04:57:02.377Z,21.24
2023-05-18T04:59:29.567Z,21.36
2023-05-18T05:01:56.801Z,21.45
2023-05-18T05:04:25.104Z,21.58
2023-05-18T05:06:52.197Z,21.71
2023-05-18T05:09:19.340Z,21.84
2023-05-18T05:11:46.617Z,21.97
2023-05-18T05:14:13.726Z,22.09
2023-05-18T05:16:41.446Z,22.21
2023-05-18T05:19:08.585Z,22.35
2023-05-18T05:21:36.550Z,22.53
2023-05-18T05:24:06.296Z,22.68
2023-05-18T05:26:33.704Z,22.82
2023-05-18T05:29:00.889Z,22.95
2023-05-18T05:31:29.894Z,23.03
2023-05-18T05:33:57.047Z,23.13
2023-05-18T05:36:24.504Z,23.27
2023-05-18T05:38:52.124Z,23.43
2023-05-18T05:41:20.160Z,23.54
2023-05-18T05:43:47.368Z,23.55
2023-05-18T05:46:14.599Z,23.62
2023-05-18T05:48:41.876Z,23.74
2023-05-18T05:51:09.427Z,23.80
2023-05-18T05:53:36.489Z,23.83
2023-05-18T05:56:04.061Z,23.92
2023-05-18T05:58:33.380Z,23.95
2023-05-18T06:01:00.599Z,24.07
2023-05-18T06:03:29.597Z,24.19
2023-05-18T06:06:00.068Z,24.28
2023-05-18T06:08:29.014Z,24.41
2023-05-18T06:10:57.359Z,24.52
2023-05-18T06:13:25.215Z,24.63
2023-05-18T06:15:55.330Z,24.72
2023-05-18T06:18:23.454Z,24.83
2023-05-18T06:20:51.523Z,24.99
2023-05-18T06:23:24.030Z,25.05
2023-05-18T06:26:11.610Z,25.14
2023-05-18T06:28:41.951Z,25.24
2023-05-18T06:31:30.262Z,25.26
2023-05-18T06:34:20.941Z,25.31
2023-05-18T06:36:48.057Z,25.36
2023-05-18T06:39:16.368Z,25.38
2023-05-18T06:41:45.859Z,25.39
2023-05-18T06:44:20.218Z,25.53
2023-05-18T06:47:07.943Z,25.63
2023-05-18T06:49:35.278Z,25.63
2023-05-18T06:52:02.836Z,25.61
2023-05-18T06:54:30.994Z,25.68
2023-05-18T06:56:59.283Z,25.74
2023-05-18T06:59:26.496Z,25.78
2023-05-18T07:01:54.132Z,25.86
2023-05-18T07:04:21.499Z,25.98
2023-05-18T07:06:49.289Z,26.07
2023-05-18T07:09:16.793Z,26.00
2023-05-18T07:11:45.693Z,25.92
2023-05-18T07:14:12.767Z,25.97
2023-05-18T07:16:40.039Z,26.04
2023-05-18T07:19:07.310Z,26.04
2023-05-18T07:21:34.738Z,26.02
2023-05-18T07:24:01.934Z,26.13
2023-05-18T07:26:29.907Z,26.21
2023-05-18T07:28:57.098Z,26.21
2023-05-18T11:57:58.906Z,27.02
2023-05-18T12:00:26.168Z,27.03
2023-05-18T12:02:57.428Z,26.96
2023-05-18T12:05:24.873Z,26.85
2023-05-18T12:07:55.477Z,26.78
2023-05-18T12:10:24.410Z,26.81
2023-05-18T12:12:53.228Z,26.90
2023-05-18T12:15:24.817Z,26.99
2023-05-18T12:17:52.383Z,27.03
2023-05-18T12:20:22.248Z,27.07
2023-05-18T12:22:53.255Z,27.07
2023-05-18T12:25:23.429Z,27.01
2023-05-18T12:27:53.093Z,26.88
2023-05-18T12:30:22.799Z,26.69
2023-05-18T12:34:04.479Z,26.55
2023-05-18T12:36:33.933Z,26.54
2023-05-18T12:39:02.746Z,26.57
2023-05-18T12:41:30.148Z,26.60
2023-05-18T12:43:58.657Z,26.55
2023-05-18T12:46:26.082Z,26.41
2023-05-18T12:49:04.651Z,26.19
2023-05-18T12:51:37.637Z,25.91
2023-05-18T12:54:07.835Z,25.60
2023-05-18T12:56:52.176Z,25.34
2023-05-18T12:59:22.609Z,25.12
2023-05-18T13:01:49.878Z,24.95
2023-05-18T13:04:17.203Z,24.81
2023-05-18T13:06:44.676Z,24.72
2023-05-18T13:09:16.389Z,24.65
2023-05-18T13:11:51.990Z,24.61
2023-05-18T13:14:27.380Z,24.56
2023-05-18T13:16:55.554Z,24.53
2023-05-18T13:19:22.750Z,24.50
2023-05-18T13:21:56.662Z,24.48
2023-05-18T13:24:23.741Z,24.46
2023-05-18T13:26:51.276Z,24.45
2023-05-18T13:29:18.446Z,24.46
2023-05-18T13:31:46.107Z,24.47
2023-05-18T13:34:13.256Z,24.46
2023-05-18T13:36:40.391Z,24.46
2023-05-18T13:39:07.576Z,24.46
2023-05-18T13:41:36.734Z,24.47
2023-05-18T13:44:04.093Z,24.49
2023-05-18T13:46:31.834Z,24.52
2023-05-18T13:48:58.906Z,24.55
2023-05-18T13:51:26.003Z,24.58
2023-05-18T13:53:53.148Z,24.61
2023-05-18T13:56:20.242Z,24.64
2023-05-18T13:58:47.618Z,24.70
2023-05-18T14:01:14.785Z,24.77
2023-05-18T14:03:41.927Z,24.88
2023-05-18T14:06:09.252Z,24.95
2023-05-18T14:08:36.291Z,24.93
2023-05-18T14:11:03.322Z,24.85
2023-05-18T14:13:30.368Z,24.77
2023-05-18T14:15:57.718Z,24.66
2023-05-18T14:18:24.817Z,24.55
2023-05-18T14:20:51.944Z,24.46
2023-05-18T14:23:19.060Z,24.38
2023-05-18T14:25:46.209Z,24.31
2023-05-18T14:28:13.701Z,24.28
2023-05-18T14:30:40.955Z,24.26
2023-05-18T14:33:08.182Z,24.23
2023-05-18T14:35:35.395Z,24.21
2023-05-18T14:38:03.209Z,24.21
2023-05-18T14:40:30.537Z,24.20
2023-05-18T14:42:57.851Z,24.17
2023-05-18T14:45:25.061Z,24.15
2023-05-18T14:47:52.181Z,24.16
2023-05-18T14:50:19.262Z,24.22
2023-05-18T14:52:46.402Z,24.32
2023-05-18T14:55:13.447Z,24.42
2023-05-18T14:57:40.620Z,24.51
2023-05-18T15:00:09.250Z,24.58
2023-05-18T15:02:36.548Z,24.62
2023-05-18T15:05:03.946Z,24.63
2023-05-18T15:07:31.291Z,24.62
2023-05-18T15:09:58.417Z,24.60
2023-05-18T15:12:25.478Z,24.58
2023-05-18T15:14:52.617Z,24.56
2023-05-18T15:17:20.574Z,24.54
2023-05-18T15:19:48.036Z,24.49
2023-05-18T15:22:15.140Z,24.44
2023-05-18T15:24:42.469Z,24.40
2023-05-18T15:27:10.760Z,24.37
2023-05-18T15:29:37.913Z,24.35
2023-05-18T15:32:05.522Z,24.32
2023-05-18T15:34:33.680Z,24.29
2023-05-18T15:37:01.491Z,24.26
2023-05-18T15:39:29.029Z,24.23
2023-05-18T15:41:56.609Z,24.18
2023-05-18T15:44:23.722Z,24.11
2023-05-18T15:46:50.923Z,24.05
2023-05-18T15:49:18.972Z,24.01
2023-05-18T15:51:46.095Z,23.95
2023-05-18T15:54:13.178Z,23.91
2023-05-18T15:56:40.360Z,23.89
2023-05-18T15:59:08.806Z,23.84
2023-05-18T16:01:36.594Z,23.79
2023-05-18T16:04:03.704Z,23.75
2023-05-18T16:06:30.851Z,23.70
2023-05-18T16:08:57.965Z,23.66
2023-05-18T16:11:25.078Z,23.63
2023-05-18T16:13:56.939Z,23.59
2023-05-18T16:16:25.583Z,23.57
2023-05-18T16:18:53.007Z,23.53
2023-05-18T16:21:20.315Z,23.50
2023-05-18T16:23:47.477Z,23.48
2023-05-18T16:26:14.825Z,23.45
2023-05-18T16:28:41.876Z,23.43
2023-05-18T16:31:11.264Z,23.43
2023-05-18T16:33:38.654Z,23.42
2023-05-18T16:36:06.694Z,23.40
2023-05-18T16:38:36.129Z,23.38
2023-05-18T16:41:05.829Z,23.33
2023-05-18T16:43:33.663Z,23.27
2023-05-18T16:46:00.881Z,23.18
2023-05-18T16:48:28.051Z,23.10
2023-05-18T16:50:55.110Z,23.03
2023-05-18T16:53:22.211Z,22.95
2023-05-18T16:55:49.747Z,22.88
2023-05-18T16:58:16.805Z,22.78
2023-05-18T17:00:43.937Z,22.68
2023-05-18T17:03:11.336Z,22.60
2023-05-18T17:05:38.512Z,22.52
2023-05-18T17:08:05.613Z,22.44
2023-05-18T17:10:35.672Z,22.33
2023-05-18T17:13:03.018Z,22.21
2023-05-18T17:15:33.081Z,22.07
2023-05-18T17:18:00.911Z,21.91
2023-05-18T17:20:28.095Z,21.74
2023-05-18T17:22:55.540Z,21.61
2023-05-18T17:25:23.216Z,21.47
2023-05-18T17:27:50.549Z,21.32
2023-05-18T17:30:17.694Z,21.19
2023-05-18T17:32:45.794Z,21.09
2023-05-18T17:35:14.419Z,20.97
2023-05-18T17:37:41.789Z,20.86
2023-05-18T17:40:10.509Z,20.71
2023-05-18T17:42:37.620Z,20.59
2023-05-18T17:45:04.986Z,20.47
2023-05-18T17:47:32.169Z,20.36
2023-05-18T17:49:59.544Z,20.27
2023-05-18T17:52:26.665Z,20.16
2023-05-18T17:54:53.806Z,20.06
2023-05-18T17:57:23.132Z,19.99
2023-05-18T17:59:50.351Z,19.93
2023-05-18T18:02:17.513Z,19.87
2023-05-18T18:04:44.558Z,19.83
2023-05-18T18:07:11.674Z,19.77
2023-05-18T18:09:38.844Z,19.70
2023-05-18T18:12:06.135Z,19.61
2023-05-18T18:14:33.248Z,19.54
2023-05-18T18:17:00.450Z,19.47
2023-05-18T18:19:27.576Z,19.38
2023-05-18T18:21:54.740Z,19.30
2023-05-18T18:24:23.685Z,19.24
2023-05-18T18:26:52.768Z,19.19
2023-05-18T18:29:20.102Z,19.10
2023-05-18T18:31:47.321Z,19.04
2023-05-18T18:34:14.440Z,18.98
2023-05-18T18:36:42.205Z,18.93
2023-05-18T18:39:09.271Z,18.93
2023-05-18T18:41:36.422Z,18.90
2023-05-18T18:44:03.517Z,18.88
2023-05-18T18:46:30.652Z,18.85
2023-05-18T18:48:57.741Z,18.85
2023-05-18T18:51:24.918Z,18.85
2023-05-18T18:53:52.140Z,18.85
2023-05-18T18:56:20.771Z,18.83
2023-05-18T18:58:48.872Z,18.79
2023-05-18T19:01:16.072Z,18.77
2023-05-18T19:03:43.396Z,18.73
2023-05-18T19:06:11.598Z,18.71
2023-05-18T19:08:38.682Z,18.66
2023-05-18T19:11:05.876Z,18.63
2023-05-18T19:13:32.937Z,18.60
2023-05-18T19:16:00.375Z,18.59
2023-05-18T19:18:27.972Z,18.57
2023-05-18T19:20:55.118Z,18.53
2023-05-18T19:23:22.151Z,18.51
2023-05-18T19:25:49.197Z,18.47
2023-05-18T19:28:16.400Z,18.41
2023-05-18T19:30:43.569Z,18.36
2023-05-18T19:33:10.954Z,18.32
2023-05-18T19:35:38.248Z,18.29
2023-05-18T19:38:05.374Z,18.26
2023-05-18T19:40:32.479Z,18.23
2023-05-18T19:43:00.019Z,18.20
2023-05-18T19:45:27.393Z,18.20
2023-05-18T19:47:54.832Z,18.18
2023-05-18T19:50:22.067Z,18.15
2023-05-18T19:52:49.684Z,18.11
2023-05-18T19:55:17.764Z,18.09
2023-05-18T19:57:44.816Z,18.05
2023-05-18T20:00:12.243Z,18.02
2023-05-18T20:02:42.079Z,17.97
2023-05-18T20:05:12.849Z,17.91
2023-05-18T20:07:40.127Z,17.84
2023-05-18T20:10:07.764Z,17.77
2023-05-18T20:12:34.869Z,17.68
2023-05-18T20:15:02.035Z,17.62
2023-05-18T20:17:29.268Z,17.55
2023-05-18T20:19:56.440Z,17.50
2023-05-18T20:22:23.550Z,17.47
2023-05-18T20:24:50.733Z,17.42
2023-05-18T20:27:17.832Z,17.39
2023-05-18T20:29:45.571Z,17.34
2023-05-18T20:32:12.770Z,17.30
2023-05-18T20:34:41.528Z,17.25
2023-05-18T20:37:10.874Z,17.18
2023-05-18T20:39:40.082Z,17.09
2023-05-18T20:42:07.700Z,17.02
2023-05-18T20:44:35.191Z,16.98
2023-05-18T20:47:02.818Z,16.97
2023-05-18T20:49:30.760Z,16.95
2023-05-18T20:51:57.960Z,16.93
2023-05-18T20:54:25.180Z,16.90
2023-05-18T20:56:52.335Z,16.89
2023-05-18T20:59:19.658Z,16.87
2023-05-18T21:01:46.803Z,16.82
2023-05-18T21:04:14.957Z,16.78
2023-05-18T21:06:44.300Z,16.73
2023-05-18T21:09:12.181Z,16.67
2023-05-18T21:11:39.944Z,16.62
2023-05-18T21:14:07.018Z,16.56
2023-05-18T21:16:34.684Z,16.50
2023-05-18T21:19:01.968Z,16.42
2023-05-18T21:21:29.313Z,16.35
2023-05-18T21:23:56.490Z,16.27
2023-05-18T21:26:23.632Z,16.20
2023-05-18T21:28:51.001Z,16.13
2023-05-18T21:31:18.220Z,16.06
2023-05-18T21:33:48.506Z,15.99
2023-05-18T21:36:16.109Z,15.94
2023-05-18T21:38:43.263Z,15.89
2023-05-18T21:41:10.474Z,15.84
2023-05-18T21:43:37.677Z,15.83
2023-05-18T21:46:05.935Z,15.82
2023-05-18T21:48:34.952Z,15.80
2023-05-18T21:51:04.051Z,15.76
2023-05-18T21:53:31.138Z,15.71
2023-05-18T21:55:58.281Z,15.65
2023-05-18T21:58:25.702Z,15.57
2023-05-18T22:00:52.910Z,15.48
2023-05-18T22:03:20.021Z,15.41
2023-05-18T22:05:47.400Z,15.36
2023-05-18T22:08:14.482Z,15.30
2023-05-18T22:10:41.833Z,15.21
2023-05-18T22:13:09.616Z,15.12
2023-05-18T22:15:37.499Z,15.04
2023-05-18T22:18:04.912Z,14.96
2023-05-18T22:20:32.966Z,14.89
2023-05-18T22:23:00.470Z,14.86
2023-05-18T22:25:27.704Z,14.83
2023-05-18T22:27:55.140Z,14.78
2023-05-18T22:30:24.129Z,14.74
2023-05-18T22:32:51.350Z,14.73
2023-05-18T22:35:18.621Z,14.71
2023-05-18T22:37:46.572Z,14.71
2023-05-18T22:40:13.886Z,14.70
2023-05-18T22:42:41.082Z,14.67
2023-05-18T22:45:10.184Z,14.65
2023-05-18T22:47:39.207Z,14.64
2023-05-18T22:50:07.689Z,14.62
2023-05-18T22:52:35.108Z,14.61
2023-05-18T22:55:02.483Z,14.61
2023-05-18T22:57:29.675Z,14.60
2023-05-18T22:59:56.849Z,14.58
2023-05-18T23:02:23.866Z,14.51
2023-05-18T23:04:51.611Z,14.43
2023-05-18T23:07:19.579Z,14.38
2023-05-18T23:09:46.677Z,14.37
2023-05-18T23:12:13.829Z,14.39
2023-05-18T23:14:40.885Z,14.42
2023-05-18T23:17:07.934Z,14.44
2023-05-18T23:19:36.475Z,14.49
2023-05-18T23:22:04.024Z,14.55
2023-05-18T23:24:31.223Z,14.58
2023-05-18T23:26:58.626Z,14.60
2023-05-18T23:29:25.826Z,14.61
2023-05-18T23:31:52.904Z,14.61
2023-05-18T23:34:20.173Z,14.57
2023-05-18T23:36:53.733Z,14.54
2023-05-18T23:39:22.480Z,14.51
2023-05-18T23:41:52.250Z,14.46
2023-05-18T23:44:19.676Z,14.38
2023-05-18T23:46:47.123Z,14.36
2023-05-18T23:49:14.508Z,14.37
2023-05-18T23:51:43.006Z,14.40
2023-05-18T23:54:10.757Z,14.43
2023-05-18T23:56:38.102Z,14.46
2023-05-18T23:59:06.983Z,14.51
